sensor_id;sensor_type;location;lat;lon;timestamp;P1;durP1;ratioP1;P2;durP2;ratioP2
62844;SDS011;48929;47.910;20.390;2022-07-23T00:01:19;7.57;;;4.30;;
62844;SDS011;48929;47.910;20.390;2022-07-23T00:03:53;5.82;;;4.10;;
62844;SDS011;48929;47.910;20.390;2022-07-23T00:06:22;8.65;;;4.45;;
62844;SDS011;48929;47.910;20.390;2022-07-23T00:08:51;6.55;;;4.47;;
62844;SDS011;48929;47.910;20.390;2022-07-23T00:11:20;6.47;;;4.55;;
62844;SDS011;48929;47.910;20.390;2022-07-23T00:13:49;7.57;;;4.85;;
62844;SDS011;48929;47.910;20.390;2022-07-23T00:16:19;11.13;;;4.45;;
62844;SDS011;48929;47.910;20.390;2022-07-23T00:18:48;7.68;;;4.78;;
62844;SDS011;48929;47.910;20.390;2022-07-23T00:21:17;10.13;;;4.38;;
62844;SDS011;48929;47.910;20.390;2022-07-23T00:23:46;9.00;;;4.80;;
62844;SDS011;48929;47.910;20.390;2022-07-23T00:26:14;5.55;;;4.28;;
62844;SDS011;48929;47.910;20.390;2022-07-23T00:28:43;7.68;;;4.38;;
62844;SDS011;48929;47.910;20.390;2022-07-23T00:31:12;8.48;;;4.53;;
62844;SDS011;48929;47.910;20.390;2022-07-23T00:33:42;6.85;;;4.20;;
62844;SDS011;48929;47.910;20.390;2022-07-23T00:36:11;8.20;;;4.43;;
62844;SDS011;48929;47.910;20.390;2022-07-23T00:38:40;8.40;;;4.35;;
62844;SDS011;48929;47.910;20.390;2022-07-23T00:41:08;7.00;;;4.35;;
62844;SDS011;48929;47.910;20.390;2022-07-23T00:43:37;8.00;;;4.55;;
62844;SDS011;48929;47.910;20.390;2022-07-23T00:46:06;6.55;;;4.40;;
62844;SDS011;48929;47.910;20.390;2022-07-23T00:48:36;7.80;;;4.60;;
62844;SDS011;48929;47.910;20.390;2022-07-23T00:51:07;6.60;;;4.43;;
62844;SDS011;48929;47.910;20.390;2022-07-23T00:53:36;6.90;;;4.60;;
62844;SDS011;48929;47.910;20.390;2022-07-23T00:56:05;7.35;;;4.22;;
62844;SDS011;48929;47.910;20.390;2022-07-23T00:58:35;9.52;;;4.20;;
62844;SDS011;48929;47.910;20.390;2022-07-23T01:01:03;10.20;;;4.65;;
62844;SDS011;48929;47.910;20.390;2022-07-23T01:03:32;7.65;;;4.70;;
62844;SDS011;48929;47.910;20.390;2022-07-23T01:06:01;7.38;;;4.20;;
62844;SDS011;48929;47.910;20.390;2022-07-23T01:08:31;10.52;;;4.60;;
62844;SDS011;48929;47.910;20.390;2022-07-23T01:11:00;5.65;;;4.40;;
62844;SDS011;48929;47.910;20.390;2022-07-23T01:13:28;8.00;;;4.30;;
62844;SDS011;48929;47.910;20.390;2022-07-23T01:15:57;7.40;;;4.88;;
62844;SDS011;48929;47.910;20.390;2022-07-23T01:18:26;9.38;;;4.72;;
62844;SDS011;48929;47.910;20.390;2022-07-23T01:20:54;6.50;;;4.25;;
62844;SDS011;48929;47.910;20.390;2022-07-23T01:23:24;7.30;;;4.32;;
62844;SDS011;48929;47.910;20.390;2022-07-23T01:25:54;9.85;;;4.70;;
62844;SDS011;48929;47.910;20.390;2022-07-23T01:28:23;6.28;;;4.60;;
62844;SDS011;48929;47.910;20.390;2022-07-23T01:30:52;10.00;;;5.18;;
62844;SDS011;48929;47.910;20.390;2022-07-23T01:33:21;9.80;;;4.70;;
62844;SDS011;48929;47.910;20.390;2022-07-23T01:35:49;6.18;;;4.15;;
62844;SDS011;48929;47.910;20.390;2022-07-23T01:38:17;8.52;;;4.93;;
62844;SDS011;48929;47.910;20.390;2022-07-23T01:40:48;6.03;;;4.60;;
62844;SDS011;48929;47.910;20.390;2022-07-23T01:43:20;6.40;;;4.60;;
62844;SDS011;48929;47.910;20.390;2022-07-23T01:45:52;7.15;;;4.50;;
62844;SDS011;48929;47.910;20.390;2022-07-23T01:48:21;9.35;;;4.82;;
62844;SDS011;48929;47.910;20.390;2022-07-23T01:50:50;7.65;;;4.75;;
62844;SDS011;48929;47.910;20.390;2022-07-23T01:53:19;8.07;;;4.65;;
62844;SDS011;48929;47.910;20.390;2022-07-23T01:55:48;7.53;;;4.50;;
62844;SDS011;48929;47.910;20.390;2022-07-23T01:58:17;5.95;;;4.32;;
62844;SDS011;48929;47.910;20.390;2022-07-23T02:00:46;7.63;;;4.82;;
62844;SDS011;48929;47.910;20.390;2022-07-23T02:03:15;8.70;;;4.60;;
62844;SDS011;48929;47.910;20.390;2022-07-23T02:05:44;6.97;;;4.60;;
62844;SDS011;48929;47.910;20.390;2022-07-23T02:08:12;6.38;;;4.55;;
62844;SDS011;48929;47.910;20.390;2022-07-23T02:10:41;7.32;;;4.90;;
62844;SDS011;48929;47.910;20.390;2022-07-23T02:13:11;8.25;;;4.53;;
62844;SDS011;48929;47.910;20.390;2022-07-23T02:15:45;7.70;;;4.53;;
62844;SDS011;48929;47.910;20.390;2022-07-23T02:18:14;7.03;;;4.88;;
62844;SDS011;48929;47.910;20.390;2022-07-23T02:20:42;6.50;;;4.70;;
62844;SDS011;48929;47.910;20.390;2022-07-23T02:23:11;8.60;;;4.70;;
62844;SDS011;48929;47.910;20.390;2022-07-23T02:25:40;9.77;;;4.60;;
62844;SDS011;48929;47.910;20.390;2022-07-23T02:28:09;9.52;;;4.90;;
62844;SDS011;48929;47.910;20.390;2022-07-23T02:30:40;7.65;;;5.15;;
62844;SDS011;48929;47.910;20.390;2022-07-23T02:33:08;8.73;;;4.80;;
62844;SDS011;48929;47.910;20.390;2022-07-23T02:35:37;7.45;;;4.82;;
62844;SDS011;48929;47.910;20.390;2022-07-23T02:38:06;7.80;;;4.60;;
62844;SDS011;48929;47.910;20.390;2022-07-23T02:40:34;7.50;;;4.80;;
62844;SDS011;48929;47.910;20.390;2022-07-23T02:43:03;9.77;;;5.03;;
62844;SDS011;48929;47.910;20.390;2022-07-23T02:45:35;6.30;;;4.88;;
62844;SDS011;48929;47.910;20.390;2022-07-23T02:48:06;8.80;;;4.70;;
62844;SDS011;48929;47.910;20.390;2022-07-23T02:50:35;8.32;;;4.88;;
62844;SDS011;48929;47.910;20.390;2022-07-23T02:53:03;7.63;;;4.78;;
62844;SDS011;48929;47.910;20.390;2022-07-23T02:55:32;7.45;;;4.72;;
62844;SDS011;48929;47.910;20.390;2022-07-23T02:58:01;8.77;;;5.05;;
62844;SDS011;48929;47.910;20.390;2022-07-23T03:00:30;9.10;;;5.07;;
62844;SDS011;48929;47.910;20.390;2022-07-23T03:02:59;7.10;;;5.05;;
62844;SDS011;48929;47.910;20.390;2022-07-23T03:05:29;7.72;;;4.97;;
62844;SDS011;48929;47.910;20.390;2022-07-23T03:07:58;7.72;;;4.93;;
62844;SDS011;48929;47.910;20.390;2022-07-23T03:10:26;6.43;;;4.68;;
62844;SDS011;48929;47.910;20.390;2022-07-23T03:12:56;8.60;;;5.05;;
62844;SDS011;48929;47.910;20.390;2022-07-23T03:15:24;7.72;;;4.97;;
62844;SDS011;48929;47.910;20.390;2022-07-23T03:17:53;7.05;;;5.15;;
62844;SDS011;48929;47.910;20.390;2022-07-23T03:20:21;11.93;;;4.82;;
62844;SDS011;48929;47.910;20.390;2022-07-23T03:22:52;10.40;;;5.03;;
62844;SDS011;48929;47.910;20.390;2022-07-23T03:25:20;9.35;;;5.15;;
62844;SDS011;48929;47.910;20.390;2022-07-23T03:27:49;8.20;;;4.97;;
62844;SDS011;48929;47.910;20.390;2022-07-23T03:30:18;6.68;;;4.68;;
62844;SDS011;48929;47.910;20.390;2022-07-23T03:32:47;8.15;;;5.15;;
62844;SDS011;48929;47.910;20.390;2022-07-23T03:35:15;9.35;;;4.68;;
62844;SDS011;48929;47.910;20.390;2022-07-23T03:37:44;7.45;;;5.00;;
62844;SDS011;48929;47.910;20.390;2022-07-23T03:40:15;8.30;;;4.93;;
62844;SDS011;48929;47.910;20.390;2022-07-23T03:42:44;12.27;;;5.18;;
62844;SDS011;48929;47.910;20.390;2022-07-23T03:45:13;8.45;;;5.10;;
62844;SDS011;48929;47.910;20.390;2022-07-23T03:47:41;9.95;;;5.28;;
62844;SDS011;48929;47.910;20.390;2022-07-23T03:50:11;8.18;;;5.03;;
62844;SDS011;48929;47.910;20.390;2022-07-23T03:52:39;9.93;;;5.30;;
62844;SDS011;48929;47.910;20.390;2022-07-23T03:55:08;9.57;;;5.07;;
62844;SDS011;48929;47.910;20.390;2022-07-23T03:57:39;7.88;;;4.70;;
62844;SDS011;48929;47.910;20.390;2022-07-23T04:00:08;8.93;;;4.93;;
62844;SDS011;48929;47.910;20.390;2022-07-23T04:02:38;8.35;;;5.40;;
62844;SDS011;48929;47.910;20.390;2022-07-23T04:05:07;8.80;;;4.90;;
62844;SDS011;48929;47.910;20.390;2022-07-23T04:07:36;9.73;;;4.95;;
62844;SDS011;48929;47.910;20.390;2022-07-23T04:10:05;9.45;;;5.22;;
62844;SDS011;48929;47.910;20.390;2022-07-23T04:12:35;7.55;;;4.90;;
62844;SDS011;48929;47.910;20.390;2022-07-23T04:15:07;8.57;;;4.82;;
62844;SDS011;48929;47.910;20.390;2022-07-23T04:17:36;10.57;;;5.72;;
62844;SDS011;48929;47.910;20.390;2022-07-23T04:20:05;8.00;;;5.53;;
62844;SDS011;48929;47.910;20.390;2022-07-23T04:22:34;8.88;;;5.00;;
62844;SDS011;48929;47.910;20.390;2022-07-23T04:25:03;8.18;;;4.82;;
62844;SDS011;48929;47.910;20.390;2022-07-23T04:27:32;13.50;;;5.28;;
62844;SDS011;48929;47.910;20.390;2022-07-23T04:30:01;8.05;;;4.90;;
62844;SDS011;48929;47.910;20.390;2022-07-23T04:32:32;7.28;;;4.90;;
62844;SDS011;48929;47.910;20.390;2022-07-23T04:35:01;11.38;;;4.68;;
62844;SDS011;48929;47.910;20.390;2022-07-23T04:37:29;10.38;;;4.88;;
62844;SDS011;48929;47.910;20.390;2022-07-23T04:39:58;9.15;;;4.80;;
62844;SDS011;48929;47.910;20.390;2022-07-23T04:42:27;7.88;;;4.88;;
62844;SDS011;48929;47.910;20.390;2022-07-23T04:44:56;7.57;;;4.75;;
62844;SDS011;48929;47.910;20.390;2022-07-23T04:47:24;9.15;;;4.72;;
62844;SDS011;48929;47.910;20.390;2022-07-23T04:49:55;8.70;;;4.68;;
62844;SDS011;48929;47.910;20.390;2022-07-23T04:52:24;7.00;;;4.75;;
62844;SDS011;48929;47.910;20.390;2022-07-23T04:54:56;8.55;;;5.03;;
62844;SDS011;48929;47.910;20.390;2022-07-23T04:57:25;8.23;;;4.82;;
62844;SDS011;48929;47.910;20.390;2022-07-23T04:59:53;10.50;;;4.78;;
62844;SDS011;48929;47.910;20.390;2022-07-23T05:02:22;6.68;;;4.88;;
62844;SDS011;48929;47.910;20.390;2022-07-23T05:04:51;6.57;;;4.65;;
62844;SDS011;48929;47.910;20.390;2022-07-23T05:07:22;10.48;;;4.93;;
62844;SDS011;48929;47.910;20.390;2022-07-23T05:09:50;10.05;;;5.32;;
62844;SDS011;48929;47.910;20.390;2022-07-23T05:12:22;13.23;;;4.75;;
62844;SDS011;48929;47.910;20.390;2022-07-23T05:14:50;7.93;;;4.80;;
62844;SDS011;48929;47.910;20.390;2022-07-23T05:17:19;11.05;;;5.07;;
62844;SDS011;48929;47.910;20.390;2022-07-23T05:19:48;6.78;;;4.88;;
62844;SDS011;48929;47.910;20.390;2022-07-23T05:22:23;8.10;;;4.95;;
62844;SDS011;48929;47.910;20.390;2022-07-23T05:24:52;9.65;;;4.72;;
62844;SDS011;48929;47.910;20.390;2022-07-23T05:27:21;8.77;;;4.47;;
62844;SDS011;48929;47.910;20.390;2022-07-23T05:29:50;7.78;;;4.97;;
62844;SDS011;48929;47.910;20.390;2022-07-23T05:32:19;7.82;;;5.15;;
62844;SDS011;48929;47.910;20.390;2022-07-23T05:34:48;9.18;;;5.22;;
62844;SDS011;48929;47.910;20.390;2022-07-23T05:37:17;11.13;;;5.25;;
62844;SDS011;48929;47.910;20.390;2022-07-23T05:39:47;10.38;;;4.60;;
62844;SDS011;48929;47.910;20.390;2022-07-23T05:42:16;9.85;;;5.00;;
62844;SDS011;48929;47.910;20.390;2022-07-23T05:44:45;7.25;;;4.82;;
62844;SDS011;48929;47.910;20.390;2022-07-23T05:47:14;11.88;;;5.00;;
62844;SDS011;48929;47.910;20.390;2022-07-23T05:49:45;10.43;;;4.32;;
62844;SDS011;48929;47.910;20.390;2022-07-23T05:52:27;8.98;;;5.10;;
62844;SDS011;48929;47.910;20.390;2022-07-23T05:54:57;6.88;;;4.80;;
62844;SDS011;48929;47.910;20.390;2022-07-23T05:57:25;9.23;;;4.93;;
62844;SDS011;48929;47.910;20.390;2022-07-23T05:59:58;9.70;;;4.75;;
62844;SDS011;48929;47.910;20.390;2022-07-23T06:02:27;9.85;;;5.30;;
62844;SDS011;48929;47.910;20.390;2022-07-23T06:04:56;10.05;;;4.90;;
62844;SDS011;48929;47.910;20.390;2022-07-23T06:07:25;7.10;;;4.60;;
62844;SDS011;48929;47.910;20.390;2022-07-23T06:12:39;9.50;;;5.03;;
62844;SDS011;48929;47.910;20.390;2022-07-23T06:15:09;11.15;;;5.05;;
62844;SDS011;48929;47.910;20.390;2022-07-23T06:17:38;11.23;;;5.28;;
62844;SDS011;48929;47.910;20.390;2022-07-23T06:20:07;9.55;;;4.93;;
62844;SDS011;48929;47.910;20.390;2022-07-23T06:22:37;8.50;;;4.65;;
62844;SDS011;48929;47.910;20.390;2022-07-23T06:25:07;11.23;;;4.93;;
62844;SDS011;48929;47.910;20.390;2022-07-23T06:27:47;8.48;;;4.78;;
62844;SDS011;48929;47.910;20.390;2022-07-23T06:30:16;13.40;;;5.10;;
62844;SDS011;48929;47.910;20.390;2022-07-23T06:32:45;12.55;;;5.40;;
62844;SDS011;48929;47.910;20.390;2022-07-23T06:35:14;10.15;;;5.03;;
62844;SDS011;48929;47.910;20.390;2022-07-23T06:37:42;10.15;;;5.70;;
62844;SDS011;48929;47.910;20.390;2022-07-23T06:40:14;7.75;;;4.90;;
62844;SDS011;48929;47.910;20.390;2022-07-23T06:42:42;10.30;;;5.18;;
62844;SDS011;48929;47.910;20.390;2022-07-23T06:45:13;13.45;;;5.13;;
62844;SDS011;48929;47.910;20.390;2022-07-23T06:47:42;11.10;;;5.28;;
62844;SDS011;48929;47.910;20.390;2022-07-23T06:50:10;8.27;;;5.10;;
62844;SDS011;48929;47.910;20.390;2022-07-23T06:52:39;7.18;;;4.53;;
62844;SDS011;48929;47.910;20.390;2022-07-23T06:55:08;9.77;;;5.32;;
62844;SDS011;48929;47.910;20.390;2022-07-23T06:57:38;9.95;;;5.30;;
62844;SDS011;48929;47.910;20.390;2022-07-23T07:00:07;9.73;;;5.22;;
62844;SDS011;48929;47.910;20.390;2022-07-23T07:02:38;9.10;;;5.00;;
62844;SDS011;48929;47.910;20.390;2022-07-23T07:05:07;9.57;;;5.45;;
62844;SDS011;48929;47.910;20.390;2022-07-23T07:07:36;10.13;;;4.95;;
62844;SDS011;48929;47.910;20.390;2022-07-23T07:10:05;13.23;;;5.45;;
62844;SDS011;48929;47.910;20.390;2022-07-23T07:12:41;11.05;;;5.20;;
62844;SDS011;48929;47.910;20.390;2022-07-23T07:15:09;7.15;;;4.50;;
62844;SDS011;48929;47.910;20.390;2022-07-23T07:17:40;7.80;;;4.63;;
62844;SDS011;48929;47.910;20.390;2022-07-23T07:20:09;9.20;;;4.72;;
62844;SDS011;48929;47.910;20.390;2022-07-23T07:22:38;8.85;;;5.18;;
62844;SDS011;48929;47.910;20.390;2022-07-23T07:25:07;6.50;;;4.60;;
62844;SDS011;48929;47.910;20.390;2022-07-23T07:27:36;10.00;;;4.65;;
62844;SDS011;48929;47.910;20.390;2022-07-23T07:30:05;7.25;;;4.80;;
62844;SDS011;48929;47.910;20.390;2022-07-23T07:32:35;8.20;;;4.53;;
62844;SDS011;48929;47.910;20.390;2022-07-23T07:35:24;7.00;;;4.50;;
62844;SDS011;48929;47.910;20.390;2022-07-23T07:37:53;9.52;;;5.15;;
62844;SDS011;48929;47.910;20.390;2022-07-23T07:40:22;6.90;;;4.32;;
62844;SDS011;48929;47.910;20.390;2022-07-23T07:42:57;8.55;;;4.70;;
62844;SDS011;48929;47.910;20.390;2022-07-23T07:45:26;7.82;;;4.78;;
62844;SDS011;48929;47.910;20.390;2022-07-23T07:47:54;8.02;;;4.68;;
62844;SDS011;48929;47.910;20.390;2022-07-23T07:50:24;7.55;;;4.80;;
62844;SDS011;48929;47.910;20.390;2022-07-23T07:52:53;7.35;;;4.78;;
62844;SDS011;48929;47.910;20.390;2022-07-23T07:55:22;7.95;;;4.60;;
62844;SDS011;48929;47.910;20.390;2022-07-23T07:57:51;9.85;;;4.90;;
62844;SDS011;48929;47.910;20.390;2022-07-23T08:00:20;8.27;;;4.70;;
62844;SDS011;48929;47.910;20.390;2022-07-23T08:02:49;8.32;;;4.70;;
62844;SDS011;48929;47.910;20.390;2022-07-23T08:05:20;9.57;;;4.60;;
62844;SDS011;48929;47.910;20.390;2022-07-23T08:07:55;9.50;;;5.32;;
62844;SDS011;48929;47.910;20.390;2022-07-23T08:10:26;6.63;;;4.72;;
62844;SDS011;48929;47.910;20.390;2022-07-23T08:12:56;10.68;;;4.55;;
62844;SDS011;48929;47.910;20.390;2022-07-23T08:15:26;8.60;;;4.60;;
62844;SDS011;48929;47.910;20.390;2022-07-23T08:17:55;10.80;;;4.63;;
62844;SDS011;48929;47.910;20.390;2022-07-23T08:20:24;6.97;;;4.53;;
62844;SDS011;48929;47.910;20.390;2022-07-23T08:22:56;10.55;;;4.90;;
62844;SDS011;48929;47.910;20.390;2022-07-23T08:25:27;8.70;;;4.80;;
62844;SDS011;48929;47.910;20.390;2022-07-23T08:27:57;8.35;;;4.68;;
62844;SDS011;48929;47.910;20.390;2022-07-23T08:30:26;7.55;;;4.72;;
62844;SDS011;48929;47.910;20.390;2022-07-23T08:32:56;9.75;;;4.72;;
62844;SDS011;48929;47.910;20.390;2022-07-23T08:35:28;9.23;;;4.80;;
62844;SDS011;48929;47.910;20.390;2022-07-23T08:38:00;6.57;;;4.78;;
62844;SDS011;48929;47.910;20.390;2022-07-23T08:40:32;7.55;;;5.10;;
62844;SDS011;48929;47.910;20.390;2022-07-23T08:43:09;10.57;;;4.70;;
62844;SDS011;48929;47.910;20.390;2022-07-23T08:45:40;6.20;;;4.80;;
62844;SDS011;48929;47.910;20.390;2022-07-23T08:48:11;8.57;;;4.90;;
62844;SDS011;48929;47.910;20.390;2022-07-23T08:50:43;8.27;;;5.10;;
62844;SDS011;48929;47.910;20.390;2022-07-23T08:53:16;9.77;;;4.70;;
62844;SDS011;48929;47.910;20.390;2022-07-23T08:55:47;7.82;;;4.88;;
62844;SDS011;48929;47.910;20.390;2022-07-23T08:58:17;8.00;;;4.65;;
62844;SDS011;48929;47.910;20.390;2022-07-23T09:00:53;8.00;;;5.13;;
62844;SDS011;48929;47.910;20.390;2022-07-23T09:03:24;13.15;;;5.30;;
62844;SDS011;48929;47.910;20.390;2022-07-23T09:05:55;10.25;;;5.22;;
62844;SDS011;48929;47.910;20.390;2022-07-23T09:08:33;8.07;;;5.40;;
62844;SDS011;48929;47.910;20.390;2022-07-23T09:11:04;9.35;;;5.20;;
62844;SDS011;48929;47.910;20.390;2022-07-23T09:13:36;7.38;;;5.50;;
62844;SDS011;48929;47.910;20.390;2022-07-23T09:16:08;6.57;;;5.18;;
62844;SDS011;48929;47.910;20.390;2022-07-23T09:18:41;8.00;;;5.13;;
62844;SDS011;48929;47.910;20.390;2022-07-23T09:21:16;8.23;;;5.18;;
62844;SDS011;48929;47.910;20.390;2022-07-23T09:23:49;9.13;;;5.53;;
62844;SDS011;48929;47.910;20.390;2022-07-23T09:26:23;6.40;;;5.28;;
62844;SDS011;48929;47.910;20.390;2022-07-23T09:29:02;9.35;;;5.25;;
62844;SDS011;48929;47.910;20.390;2022-07-23T09:31:42;9.13;;;5.10;;
62844;SDS011;48929;47.910;20.390;2022-07-23T09:34:13;8.27;;;5.28;;
62844;SDS011;48929;47.910;20.390;2022-07-23T09:36:44;11.50;;;5.60;;
62844;SDS011;48929;47.910;20.390;2022-07-23T09:39:24;9.10;;;5.13;;
62844;SDS011;48929;47.910;20.390;2022-07-23T09:41:55;8.23;;;5.50;;
62844;SDS011;48929;47.910;20.390;2022-07-23T09:44:24;8.32;;;5.05;;
62844;SDS011;48929;47.910;20.390;2022-07-23T09:46:57;7.82;;;5.00;;
62844;SDS011;48929;47.910;20.390;2022-07-23T09:49:26;7.22;;;5.30;;
62844;SDS011;48929;47.910;20.390;2022-07-23T09:51:57;7.68;;;5.05;;
62844;SDS011;48929;47.910;20.390;2022-07-23T09:54:30;7.80;;;5.20;;
62844;SDS011;48929;47.910;20.390;2022-07-23T09:57:02;6.50;;;5.00;;
62844;SDS011;48929;47.910;20.390;2022-07-23T09:59:34;9.20;;;5.07;;
62844;SDS011;48929;47.910;20.390;2022-07-23T10:02:04;7.50;;;5.25;;
62844;SDS011;48929;47.910;20.390;2022-07-23T10:04:34;6.03;;;4.88;;
62844;SDS011;48929;47.910;20.390;2022-07-23T10:07:04;8.18;;;5.18;;
62844;SDS011;48929;47.910;20.390;2022-07-23T10:09:37;7.35;;;5.20;;
62844;SDS011;48929;47.910;20.390;2022-07-23T10:12:09;7.05;;;5.13;;
62844;SDS011;48929;47.910;20.390;2022-07-23T10:15:05;8.60;;;5.22;;
62844;SDS011;48929;47.910;20.390;2022-07-23T10:17:34;10.23;;;5.18;;
62844;SDS011;48929;47.910;20.390;2022-07-23T10:20:03;7.32;;;5.07;;
62844;SDS011;48929;47.910;20.390;2022-07-23T10:22:33;8.30;;;5.30;;
62844;SDS011;48929;47.910;20.390;2022-07-23T10:25:10;9.10;;;5.30;;
62844;SDS011;48929;47.910;20.390;2022-07-23T10:27:51;7.13;;;5.13;;
62844;SDS011;48929;47.910;20.390;2022-07-23T10:30:35;8.70;;;5.35;;
62844;SDS011;48929;47.910;20.390;2022-07-23T10:33:15;8.85;;;5.20;;
62844;SDS011;48929;47.910;20.390;2022-07-23T10:35:54;8.98;;;5.05;;
62844;SDS011;48929;47.910;20.390;2022-07-23T10:38:37;7.70;;;5.18;;
62844;SDS011;48929;47.910;20.390;2022-07-23T10:41:12;9.50;;;5.13;;
62844;SDS011;48929;47.910;20.390;2022-07-23T10:43:41;8.70;;;4.65;;
62844;SDS011;48929;47.910;20.390;2022-07-23T10:49:22;8.87;;;5.10;;
62844;SDS011;48929;47.910;20.390;2022-07-23T10:54:48;9.25;;;5.50;;
62844;SDS011;48929;47.910;20.390;2022-07-23T10:57:19;8.05;;;5.25;;
62844;SDS011;48929;47.910;20.390;2022-07-23T11:02:52;7.40;;;5.05;;
62844;SDS011;48929;47.910;20.390;2022-07-23T11:05:22;7.63;;;5.10;;
62844;SDS011;48929;47.910;20.390;2022-07-23T11:10:44;8.93;;;5.40;;
62844;SDS011;48929;47.910;20.390;2022-07-23T11:16:20;7.15;;;5.15;;
62844;SDS011;48929;47.910;20.390;2022-07-23T11:19:04;6.88;;;5.13;;
62844;SDS011;48929;47.910;20.390;2022-07-23T11:21:47;8.23;;;5.22;;
62844;SDS011;48929;47.910;20.390;2022-07-23T11:24:21;6.97;;;4.93;;
62844;SDS011;48929;47.910;20.390;2022-07-23T11:26:58;8.68;;;5.03;;
62844;SDS011;48929;47.910;20.390;2022-07-23T11:29:39;7.88;;;5.15;;
62844;SDS011;48929;47.910;20.390;2022-07-23T11:32:36;5.40;;;4.70;;
62844;SDS011;48929;47.910;20.390;2022-07-23T11:35:20;7.10;;;5.00;;
62844;SDS011;48929;47.910;20.390;2022-07-23T11:37:54;9.23;;;4.82;;
62844;SDS011;48929;47.910;20.390;2022-07-23T11:40:31;7.38;;;4.93;;
62844;SDS011;48929;47.910;20.390;2022-07-23T11:43:01;9.32;;;5.15;;
62844;SDS011;48929;47.910;20.390;2022-07-23T11:45:34;7.25;;;4.88;;
62844;SDS011;48929;47.910;20.390;2022-07-23T11:48:05;7.53;;;5.32;;
62844;SDS011;48929;47.910;20.390;2022-07-23T11:50:35;6.60;;;5.00;;
62844;SDS011;48929;47.910;20.390;2022-07-23T11:53:05;7.22;;;5.30;;
62844;SDS011;48929;47.910;20.390;2022-07-23T11:55:33;8.70;;;5.28;;
62844;SDS011;48929;47.910;20.390;2022-07-23T11:58:02;6.32;;;5.22;;
62844;SDS011;48929;47.910;20.390;2022-07-23T12:00:31;7.40;;;4.70;;
62844;SDS011;48929;47.910;20.390;2022-07-23T12:05:36;7.65;;;4.90;;
62844;SDS011;48929;47.910;20.390;2022-07-23T12:08:06;7.95;;;4.90;;
62844;SDS011;48929;47.910;20.390;2022-07-23T12:10:37;9.10;;;4.80;;
62844;SDS011;48929;47.910;20.390;2022-07-23T12:13:09;8.52;;;5.22;;
62844;SDS011;48929;47.910;20.390;2022-07-23T12:15:41;5.65;;;4.63;;
62844;SDS011;48929;47.910;20.390;2022-07-23T12:18:12;7.05;;;5.18;;
62844;SDS011;48929;47.910;20.390;2022-07-23T12:20:43;8.48;;;5.03;;
62844;SDS011;48929;47.910;20.390;2022-07-23T12:23:14;5.22;;;4.70;;
62844;SDS011;48929;47.910;20.390;2022-07-23T12:25:47;8.07;;;5.07;;
62844;SDS011;48929;47.910;20.390;2022-07-23T12:28:20;7.18;;;4.95;;
62844;SDS011;48929;47.910;20.390;2022-07-23T12:30:52;9.63;;;5.18;;
62844;SDS011;48929;47.910;20.390;2022-07-23T12:33:22;5.68;;;4.80;;
62844;SDS011;48929;47.910;20.390;2022-07-23T12:35:53;6.90;;;5.00;;
62844;SDS011;48929;47.910;20.390;2022-07-23T12:38:24;9.32;;;5.10;;
62844;SDS011;48929;47.910;20.390;2022-07-23T12:40:54;7.47;;;5.43;;
62844;SDS011;48929;47.910;20.390;2022-07-23T12:43:25;8.20;;;5.05;;
62844;SDS011;48929;47.910;20.390;2022-07-23T12:46:02;7.10;;;4.90;;
62844;SDS011;48929;47.910;20.390;2022-07-23T12:48:32;6.25;;;5.30;;
62844;SDS011;48929;47.910;20.390;2022-07-23T12:51:04;7.28;;;4.88;;
62844;SDS011;48929;47.910;20.390;2022-07-23T12:53:36;8.63;;;5.00;;
62844;SDS011;48929;47.910;20.390;2022-07-23T12:56:08;7.93;;;5.45;;
62844;SDS011;48929;47.910;20.390;2022-07-23T12:58:43;6.50;;;4.80;;
62844;SDS011;48929;47.910;20.390;2022-07-23T13:01:26;8.38;;;5.00;;
62844;SDS011;48929;47.910;20.390;2022-07-23T13:03:59;6.68;;;4.97;;
62844;SDS011;48929;47.910;20.390;2022-07-23T13:06:40;9.30;;;4.90;;
62844;SDS011;48929;47.910;20.390;2022-07-23T13:09:11;6.50;;;5.13;;
62844;SDS011;48929;47.910;20.390;2022-07-23T13:11:41;6.75;;;5.18;;
62844;SDS011;48929;47.910;20.390;2022-07-23T13:14:13;9.43;;;5.43;;
62844;SDS011;48929;47.910;20.390;2022-07-23T13:16:44;7.05;;;5.15;;
62844;SDS011;48929;47.910;20.390;2022-07-23T13:19:14;7.22;;;5.05;;
62844;SDS011;48929;47.910;20.390;2022-07-23T13:21:44;7.38;;;5.18;;
62844;SDS011;48929;47.910;20.390;2022-07-23T13:24:14;7.70;;;5.70;;
62844;SDS011;48929;47.910;20.390;2022-07-23T13:26:43;21.92;;;5.55;;
62844;SDS011;48929;47.910;20.390;2022-07-23T13:29:13;8.45;;;5.20;;
62844;SDS011;48929;47.910;20.390;2022-07-23T13:31:46;8.98;;;4.85;;
62844;SDS011;48929;47.910;20.390;2022-07-23T13:34:16;8.40;;;4.95;;
62844;SDS011;48929;47.910;20.390;2022-07-23T13:36:46;7.90;;;5.38;;
62844;SDS011;48929;47.910;20.390;2022-07-23T13:39:14;9.30;;;5.72;;
62844;SDS011;48929;47.910;20.390;2022-07-23T13:41:43;8.80;;;5.47;;
62844;SDS011;48929;47.910;20.390;2022-07-23T13:44:19;6.65;;;5.45;;
62844;SDS011;48929;47.910;20.390;2022-07-23T13:46:50;7.05;;;5.82;;
62844;SDS011;48929;47.910;20.390;2022-07-23T13:49:18;6.70;;;5.57;;
62844;SDS011;48929;47.910;20.390;2022-07-23T13:51:48;8.43;;;5.53;;
62844;SDS011;48929;47.910;20.390;2022-07-23T13:54:17;7.65;;;5.90;;
62844;SDS011;48929;47.910;20.390;2022-07-23T13:56:46;6.40;;;5.80;;
62844;SDS011;48929;47.910;20.390;2022-07-23T13:59:15;7.45;;;5.82;;
62844;SDS011;48929;47.910;20.390;2022-07-23T14:01:44;7.25;;;5.93;;
62844;SDS011;48929;47.910;20.390;2022-07-23T14:04:35;6.63;;;5.38;;
62844;SDS011;48929;47.910;20.390;2022-07-23T14:07:04;8.07;;;6.20;;
62844;SDS011;48929;47.910;20.390;2022-07-23T14:09:33;7.72;;;5.90;;
62844;SDS011;48929;47.910;20.390;2022-07-23T14:12:01;7.68;;;6.10;;
62844;SDS011;48929;47.910;20.390;2022-07-23T14:14:30;14.07;;;10.10;;
62844;SDS011;48929;47.910;20.390;2022-07-23T14:17:02;17.70;;;10.40;;
62844;SDS011;48929;47.910;20.390;2022-07-23T14:19:35;8.30;;;6.40;;
62844;SDS011;48929;47.910;20.390;2022-07-23T14:22:03;28.83;;;13.07;;
62844;SDS011;48929;47.910;20.390;2022-07-23T14:24:32;12.18;;;7.90;;
62844;SDS011;48929;47.910;20.390;2022-07-23T14:27:01;9.73;;;6.97;;
62844;SDS011;48929;47.910;20.390;2022-07-23T14:29:31;7.20;;;6.50;;
62844;SDS011;48929;47.910;20.390;2022-07-23T14:32:00;7.55;;;6.10;;
62844;SDS011;48929;47.910;20.390;2022-07-23T14:34:29;7.03;;;6.20;;
62844;SDS011;48929;47.910;20.390;2022-07-23T14:37:02;7.00;;;6.25;;
62844;SDS011;48929;47.910;20.390;2022-07-23T14:39:31;8.30;;;6.50;;
62844;SDS011;48929;47.910;20.390;2022-07-23T14:42:00;6.90;;;6.10;;
62844;SDS011;48929;47.910;20.390;2022-07-23T14:44:28;8.43;;;6.38;;
62844;SDS011;48929;47.910;20.390;2022-07-23T14:46:57;8.23;;;6.30;;
62844;SDS011;48929;47.910;20.390;2022-07-23T14:49:26;10.02;;;7.10;;
62844;SDS011;48929;47.910;20.390;2022-07-23T14:51:55;9.63;;;6.68;;
62844;SDS011;48929;47.910;20.390;2022-07-23T14:54:27;8.95;;;6.93;;
62844;SDS011;48929;47.910;20.390;2022-07-23T14:56:56;9.45;;;6.10;;
62844;SDS011;48929;47.910;20.390;2022-07-23T14:59:26;6.85;;;5.95;;
62844;SDS011;48929;47.910;20.390;2022-07-23T15:01:55;7.65;;;5.90;;
62844;SDS011;48929;47.910;20.390;2022-07-23T15:04:24;9.60;;;6.18;;
62844;SDS011;48929;47.910;20.390;2022-07-23T15:07:03;8.52;;;5.82;;
62844;SDS011;48929;47.910;20.390;2022-07-23T15:09:34;8.65;;;5.95;;
62844;SDS011;48929;47.910;20.390;2022-07-23T15:12:03;6.82;;;5.70;;
62844;SDS011;48929;47.910;20.390;2022-07-23T15:14:38;8.70;;;5.38;;